sensor_id;sensor_type;location;lat;lon;timestamp;temperature;humidity
60727;DHT22;46577;49.004;12.120;2023-04-16T00:01:27;9.00;99.90
60727;DHT22;46577;49.004;12.120;2023-04-16T00:03:53;9.10;99.90
60727;DHT22;46577;49.004;12.120;2023-04-16T00:06:19;9.00;99.90
60727;DHT22;46577;49.004;12.120;2023-04-16T00:08:45;8.90;99.90
60727;DHT22;46577;49.004;12.120;2023-04-16T00:11:10;8.90;99.90
60727;DHT22;46577;49.004;12.120;2023-04-16T00:13:36;8.90;99.90
60727;DHT22;46577;49.004;12.120;2023-04-16T00:16:02;8.90;99.90
60727;DHT22;46577;49.004;12.120;2023-04-16T00:18:27;9.00;99.90
60727;DHT22;46577;49.004;12.120;2023-04-16T00:20:53;9.00;99.90
60727;DHT22;46577;49.004;12.120;2023-04-16T00:23:19;9.00;99.90
60727;DHT22;46577;49.004;12.120;2023-04-16T00:25:45;9.00;99.90
60727;DHT22;46577;49.004;12.120;2023-04-16T00:28:11;9.00;99.90
60727;DHT22;46577;49.004;12.120;2023-04-16T00:30:36;9.00;99.90
60727;DHT22;46577;49.004;12.120;2023-04-16T00:33:02;9.10;99.90
60727;DHT22;46577;49.004;12.120;2023-04-16T00:35:29;9.00;99.90
60727;DHT22;46577;49.004;12.120;2023-04-16T00:37:55;9.10;99.90
60727;DHT22;46577;49.004;12.120;2023-04-16T00:40:20;9.10;99.90
60727;DHT22;46577;49.004;12.120;2023-04-16T00:42:46;9.10;99.90
60727;DHT22;46577;49.004;12.120;2023-04-16T00:45:12;9.00;99.90
60727;DHT22;46577;49.004;12.120;2023-04-16T00:47:37;9.00;99.90
60727;DHT22;46577;49.004;12.120;2023-04-16T00:50:05;8.90;99.90
60727;DHT22;46577;49.004;12.120;2023-04-16T00:52:31;9.00;99.90
60727;DHT22;46577;49.004;12.120;2023-04-16T00:54:57;9.00;99.90
60727;DHT22;46577;49.004;12.120;2023-04-16T00:57:23;9.00;99.90
60727;DHT22;46577;49.004;12.120;2023-04-16T00:59:50;9.00;99.90
60727;DHT22;46577;49.004;12.120;2023-04-16T01:02:15;8.90;99.90
60727;DHT22;46577;49.004;12.120;2023-04-16T01:04:41;8.90;99.90
60727;DHT22;46577;49.004;12.120;2023-04-16T01:07:07;8.80;99.90
60727;DHT22;46577;49.004;12.120;2023-04-16T01:09:32;8.80;99.90
60727;DHT22;46577;49.004;12.120;2023-04-16T01:11:58;8.80;99.90
60727;DHT22;46577;49.004;12.120;2023-04-16T01:14:23;8.80;99.90
60727;DHT22;46577;49.004;12.120;2023-04-16T01:16:49;8.90;99.90
60727;DHT22;46577;49.004;12.120;2023-04-16T01:19:15;8.90;99.90
60727;DHT22;46577;49.004;12.120;2023-04-16T01:21:40;8.90;99.90
60727;DHT22;46577;49.004;12.120;2023-04-16T01:24:06;8.90;99.90
60727;DHT22;46577;49.004;12.120;2023-04-16T01:26:31;8.90;99.90
60727;DHT22;46577;49.004;12.120;2023-04-16T01:28:58;8.80;99.90
60727;DHT22;46577;49.004;12.120;2023-04-16T01:31:24;8.80;99.90
60727;DHT22;46577;49.004;12.120;2023-04-16T01:33:49;8.90;99.90
60727;DHT22;46577;49.004;12.120;2023-04-16T01:36:15;8.90;99.90
60727;DHT22;46577;49.004;12.120;2023-04-16T01:38:41;8.90;99.90
60727;DHT22;46577;49.004;12.120;2023-04-16T01:41:07;8.90;99.90
60727;DHT22;46577;49.004;12.120;2023-04-16T01:43:32;8.90;99.90
60727;DHT22;46577;49.004;12.120;2023-04-16T01:46:26;8.80;99.90
60727;DHT22;46577;49.004;12.120;2023-04-16T01:48:52;8.80;99.90
60727;DHT22;46577;49.004;12.120;2023-04-16T01:51:19;8.80;99.90
60727;DHT22;46577;49.004;12.120;2023-04-16T01:53:45;8.70;99.90
60727;DHT22;46577;49.004;12.120;2023-04-16T01:56:10;8.70;99.90
60727;DHT22;46577;49.004;12.120;2023-04-16T01:58:36;8.80;99.90
60727;DHT22;46577;49.004;12.120;2023-04-16T02:01:02;8.90;99.90
60727;DHT22;46577;49.004;12.120;2023-04-16T02:03:28;8.80;99.90
60727;DHT22;46577;49.004;12.120;2023-04-16T02:05:53;8.90;99.90
60727;DHT22;46577;49.004;12.120;2023-04-16T02:08:19;8.90;99.90
60727;DHT22;46577;49.004;12.120;2023-04-16T02:10:46;9.00;99.90
60727;DHT22;46577;49.004;12.120;2023-04-16T02:13:13;9.00;99.90
60727;DHT22;46577;49.004;12.120;2023-04-16T02:15:38;9.00;99.90
60727;DHT22;46577;49.004;12.120;2023-04-16T02:18:04;9.00;99.90
60727;DHT22;46577;49.004;12.120;2023-04-16T02:20:30;9.00;99.90
60727;DHT22;46577;49.004;12.120;2023-04-16T02:22:55;9.00;99.90
60727;DHT22;46577;49.004;12.120;2023-04-16T02:25:21;9.10;99.90
60727;DHT22;46577;49.004;12.120;2023-04-16T02:27:48;9.10;99.90
60727;DHT22;46577;49.004;12.120;2023-04-16T02:30:14;9.00;99.90
60727;DHT22;46577;49.004;12.120;2023-04-16T02:32:39;9.10;99.90
60727;DHT22;46577;49.004;12.120;2023-04-16T02:35:05;9.00;99.90
60727;DHT22;46577;49.004;12.120;2023-04-16T02:37:31;9.00;99.90
60727;DHT22;46577;49.004;12.120;2023-04-16T02:39:56;9.00;99.90
60727;DHT22;46577;49.004;12.120;2023-04-16T02:42:22;9.10;99.90
60727;DHT22;46577;49.004;12.120;2023-04-16T02:44:47;9.00;99.90
60727;DHT22;46577;49.004;12.120;2023-04-16T02:47:13;9.00;99.90
60727;DHT22;46577;49.004;12.120;2023-04-16T02:49:39;9.10;99.90
60727;DHT22;46577;49.004;12.120;2023-04-16T02:52:04;9.10;99.90
60727;DHT22;46577;49.004;12.120;2023-04-16T02:54:30;9.10;99.90
60727;DHT22;46577;49.004;12.120;2023-04-16T02:56:55;9.20;99.90
60727;DHT22;46577;49.004;12.120;2023-04-16T02:59:21;9.10;99.90
60727;DHT22;46577;49.004;12.120;2023-04-16T03:01:46;9.10;99.90
60727;DHT22;46577;49.004;12.120;2023-04-16T03:04:12;9.00;99.90
60727;DHT22;46577;49.004;12.120;2023-04-16T03:06:38;8.90;99.90
60727;DHT22;46577;49.004;12.120;2023-04-16T03:09:03;8.90;99.90
60727;DHT22;46577;49.004;12.120;2023-04-16T03:11:29;9.00;99.90
60727;DHT22;46577;49.004;12.120;2023-04-16T03:13:54;9.00;99.90
60727;DHT22;46577;49.004;12.120;2023-04-16T03:16:21;9.00;99.90
60727;DHT22;46577;49.004;12.120;2023-04-16T03:18:46;8.90;99.90
60727;DHT22;46577;49.004;12.120;2023-04-16T03:21:12;8.90;99.90
60727;DHT22;46577;49.004;12.120;2023-04-16T03:23:37;8.80;99.90
60727;DHT22;46577;49.004;12.120;2023-04-16T03:26:03;8.90;99.90
60727;DHT22;46577;49.004;12.120;2023-04-16T03:28:29;8.90;99.90
60727;DHT22;46577;49.004;12.120;2023-04-16T03:30:54;8.80;99.90
60727;DHT22;46577;49.004;12.120;2023-04-16T03:33:20;8.90;99.90
60727;DHT22;46577;49.004;12.120;2023-04-16T03:35:45;9.00;99.90
60727;DHT22;46577;49.004;12.120;2023-04-16T03:38:11;9.00;99.90
60727;DHT22;46577;49.004;12.120;2023-04-16T03:40:38;9.00;99.90
60727;DHT22;46577;49.004;12.120;2023-04-16T03:43:03;9.00;99.90
60727;DHT22;46577;49.004;12.120;2023-04-16T03:45:29;9.00;99.90
60727;DHT22;46577;49.004;12.120;2023-04-16T03:47:55;9.00;99.90
60727;DHT22;46577;49.004;12.120;2023-04-16T03:50:20;8.90;99.90
60727;DHT22;46577;49.004;12.120;2023-04-16T03:52:46;9.00;99.90
60727;DHT22;46577;49.004;12.120;2023-04-16T03:55:14;8.90;99.90
60727;DHT22;46577;49.004;12.120;2023-04-16T03:57:40;9.00;99.90
60727;DHT22;46577;49.004;12.120;2023-04-16T04:00:06;9.00;99.90
60727;DHT22;46577;49.004;12.120;2023-04-16T04:02:32;9.00;99.90
60727;DHT22;46577;49.004;12.120;2023-04-16T04:04:57;9.00;99.90
60727;DHT22;46577;49.004;12.120;2023-04-16T04:07:23;9.00;99.90
60727;DHT22;46577;49.004;12.120;2023-04-16T04:09:49;9.00;99.90
60727;DHT22;46577;49.004;12.120;2023-04-16T04:12:14;8.00;99.90
60727;DHT22;46577;49.004;12.120;2023-04-16T04:14:40;8.90;99.90
60727;DHT22;46577;49.004;12.120;2023-04-16T04:17:07;8.90;99.90
60727;DHT22;46577;49.004;12.120;2023-04-16T04:19:33;9.00;99.90
60727;DHT22;46577;49.004;12.120;2023-04-16T04:21:58;8.90;99.90
60727;DHT22;46577;49.004;12.120;2023-04-16T04:24:24;9.00;99.90
60727;DHT22;46577;49.004;12.120;2023-04-16T04:26:50;9.00;99.90
60727;DHT22;46577;49.004;12.120;2023-04-16T04:29:16;9.00;99.90
60727;DHT22;46577;49.004;12.120;2023-04-16T04:31:41;9.10;99.90
60727;DHT22;46577;49.004;12.120;2023-04-16T04:34:07;9.20;99.90
60727;DHT22;46577;49.004;12.120;2023-04-16T04:36:33;9.20;99.90
60727;DHT22;46577;49.004;12.120;2023-04-16T04:38:59;9.30;99.90
60727;DHT22;46577;49.004;12.120;2023-04-16T04:41:25;9.20;99.90
60727;DHT22;46577;49.004;12.120;2023-04-16T04:43:51;9.20;99.90
60727;DHT22;46577;49.004;12.120;2023-04-16T04:46:17;9.20;99.90
60727;DHT22;46577;49.004;12.120;2023-04-16T04:48:42;9.20;99.90
60727;DHT22;46577;49.004;12.120;2023-04-16T04:51:08;9.10;99.90
60727;DHT22;46577;49.004;12.120;2023-04-16T04:53:33;9.10;99.90
60727;DHT22;46577;49.004;12.120;2023-04-16T04:55:59;9.20;99.90
60727;DHT22;46577;49.004;12.120;2023-04-16T04:58:24;9.30;99.90
60727;DHT22;46577;49.004;12.120;2023-04-16T05:00:50;9.30;99.90
60727;DHT22;46577;49.004;12.120;2023-04-16T05:03:18;9.30;99.90
60727;DHT22;46577;49.004;12.120;2023-04-16T05:05:44;9.40;99.90
60727;DHT22;46577;49.004;12.120;2023-04-16T05:08:10;9.40;99.90
60727;DHT22;46577;49.004;12.120;2023-04-16T05:10:35;9.40;99.90
60727;DHT22;46577;49.004;12.120;2023-04-16T05:13:01;9.50;99.90
60727;DHT22;46577;49.004;12.120;2023-04-16T05:15:27;9.60;99.90
60727;DHT22;46577;49.004;12.120;2023-04-16T05:17:52;9.60;99.90
60727;DHT22;46577;49.004;12.120;2023-04-16T05:20:22;9.60;99.90
60727;DHT22;46577;49.004;12.120;2023-04-16T05:22:49;9.60;99.90
60727;DHT22;46577;49.004;12.120;2023-04-16T05:25:15;9.60;99.90
60727;DHT22;46577;49.004;12.120;2023-04-16T05:27:41;9.70;99.90
60727;DHT22;46577;49.004;12.120;2023-04-16T05:30:08;9.60;99.90
60727;DHT22;46577;49.004;12.120;2023-04-16T05:32:34;9.60;99.90
60727;DHT22;46577;49.004;12.120;2023-04-16T05:34:59;9.70;99.90
60727;DHT22;46577;49.004;12.120;2023-04-16T05:37:25;9.70;99.90
60727;DHT22;46577;49.004;12.120;2023-04-16T05:39:51;9.70;99.90
60727;DHT22;46577;49.004;12.120;2023-04-16T05:42:16;9.80;99.90
60727;DHT22;46577;49.004;12.120;2023-04-16T05:44:42;9.80;99.90
60727;DHT22;46577;49.004;12.120;2023-04-16T05:47:07;9.90;99.90
60727;DHT22;46577;49.004;12.120;2023-04-16T05:49:34;10.10;99.90
60727;DHT22;46577;49.004;12.120;2023-04-16T05:52:02;10.00;99.90
60727;DHT22;46577;49.004;12.120;2023-04-16T05:54:28;10.10;99.90
60727;DHT22;46577;49.004;12.120;2023-04-16T05:56:53;10.20;99.90
60727;DHT22;46577;49.004;12.120;2023-04-16T05:59:19;10.40;99.90
60727;DHT22;46577;49.004;12.120;2023-04-16T06:01:45;10.40;99.90
60727;DHT22;46577;49.004;12.120;2023-04-16T06:04:10;10.50;99.90
60727;DHT22;46577;49.004;12.120;2023-04-16T06:06:36;10.60;99.90
60727;DHT22;46577;49.004;12.120;2023-04-16T06:09:02;10.60;99.90
60727;DHT22;46577;49.004;12.120;2023-04-16T06:11:31;10.70;99.90
60727;DHT22;46577;49.004;12.120;2023-04-16T06:13:57;10.70;99.90
60727;DHT22;46577;49.004;12.120;2023-04-16T06:16:22;10.70;99.90
60727;DHT22;46577;49.004;12.120;2023-04-16T06:18:48;10.60;99.90
60727;DHT22;46577;49.004;12.120;2023-04-16T06:21:14;10.60;99.90
60727;DHT22;46577;49.004;12.120;2023-04-16T06:23:40;10.70;99.90
60727;DHT22;46577;49.004;12.120;2023-04-16T06:26:05;10.70;99.90
60727;DHT22;46577;49.004;12.120;2023-04-16T06:28:31;10.90;99.90
60727;DHT22;46577;49.004;12.120;2023-04-16T06:30:56;11.00;99.90
60727;DHT22;46577;49.004;12.120;2023-04-16T06:33:22;11.20;99.90
60727;DHT22;46577;49.004;12.120;2023-04-16T06:35:48;11.30;99.90
60727;DHT22;46577;49.004;12.120;2023-04-16T06:38:14;11.40;99.90
60727;DHT22;46577;49.004;12.120;2023-04-16T06:40:39;11.40;99.90
60727;DHT22;46577;49.004;12.120;2023-04-16T06:43:05;11.70;99.90
60727;DHT22;46577;49.004;12.120;2023-04-16T06:45:31;11.80;99.90
60727;DHT22;46577;49.004;12.120;2023-04-16T06:47:57;11.90;99.90
60727;DHT22;46577;49.004;12.120;2023-04-16T06:50:26;12.00;99.90
60727;DHT22;46577;49.004;12.120;2023-04-16T06:52:55;12.00;99.90
60727;DHT22;46577;49.004;12.120;2023-04-16T06:55:21;12.10;99.90
60727;DHT22;46577;49.004;12.120;2023-04-16T06:57:46;12.20;99.90
60727;DHT22;46577;49.004;12.120;2023-04-16T07:00:12;12.30;99.90
60727;DHT22;46577;49.004;12.120;2023-04-16T07:02:38;12.50;99.90
60727;DHT22;46577;49.004;12.120;2023-04-16T07:05:04;12.80;99.90
60727;DHT22;46577;49.004;12.120;2023-04-16T07:07:30;13.10;99.90
60727;DHT22;46577;49.004;12.120;2023-04-16T07:09:55;13.30;99.90
60727;DHT22;46577;49.004;12.120;2023-04-16T07:12:21;13.70;99.90
60727;DHT22;46577;49.004;12.120;2023-04-16T07:14:46;14.10;99.90
60727;DHT22;46577;49.004;12.120;2023-04-16T07:17:12;14.40;99.90
60727;DHT22;46577;49.004;12.120;2023-04-16T07:19:38;14.40;99.90
60727;DHT22;46577;49.004;12.120;2023-04-16T07:22:03;14.20;99.90
60727;DHT22;46577;49.004;12.120;2023-04-16T07:24:29;14.10;99.90
60727;DHT22;46577;49.004;12.120;2023-04-16T07:26:55;14.00;99.90
60727;DHT22;46577;49.004;12.120;2023-04-16T07:29:20;13.80;99.90
60727;DHT22;46577;49.004;12.120;2023-04-16T07:31:46;13.70;99.90
60727;DHT22;46577;49.004;12.120;2023-04-16T07:34:11;13.50;99.90
60727;DHT22;46577;49.004;12.120;2023-04-16T07:36:37;13.50;99.90
60727;DHT22;46577;49.004;12.120;2023-04-16T07:39:06;13.50;99.90
60727;DHT22;46577;49.004;12.120;2023-04-16T07:41:31;13.30;99.90
60727;DHT22;46577;49.004;12.120;2023-04-16T07:43:57;13.50;99.90
60727;DHT22;46577;49.004;12.120;2023-04-16T07:46:23;13.50;99.90
60727;DHT22;46577;49.004;12.120;2023-04-16T07:48:48;13.80;99.90
60727;DHT22;46577;49.004;12.120;2023-04-16T07:51:14;14.10;99.90
60727;DHT22;46577;49.004;12.120;2023-04-16T07:53:40;14.30;99.90
60727;DHT22;46577;49.004;12.120;2023-04-16T07:56:08;15.00;99.90
60727;DHT22;46577;49.004;12.120;2023-04-16T07:58:33;15.80;98.80
60727;DHT22;46577;49.004;12.120;2023-04-16T08:00:59;16.20;98.30
60727;DHT22;46577;49.004;12.120;2023-04-16T08:03:25;16.20;98.00
60727;DHT22;46577;49.004;12.120;2023-04-16T08:05:51;16.20;97.50
60727;DHT22;46577;49.004;12.120;2023-04-16T08:08:17;16.50;97.30
60727;DHT22;46577;49.004;12.120;2023-04-16T08:10:42;16.90;96.60
60727;DHT22;46577;49.004;12.120;2023-04-16T08:13:08;17.20;96.00
60727;DHT22;46577;49.004;12.120;2023-04-16T08:15:33;17.40;95.00
60727;DHT22;46577;49.004;12.120;2023-04-16T08:17:59;17.90;94.30
60727;DHT22;46577;49.004;12.120;2023-04-16T08:20:25;18.20;93.10
60727;DHT22;46577;49.004;12.120;2023-04-16T08:22:52;18.20;92.50
60727;DHT22;46577;49.004;12.120;2023-04-16T08:25:18;17.90;92.10
60727;DHT22;46577;49.004;12.120;2023-04-16T08:27:44;17.90;92.70
60727;DHT22;46577;49.004;12.120;2023-04-16T08:30:10;17.50;92.40
60727;DHT22;46577;49.004;12.120;2023-04-16T08:32:36;17.30;92.60
60727;DHT22;46577;49.004;12.120;2023-04-16T08:35:02;17.10;92.50
60727;DHT22;46577;49.004;12.120;2023-04-16T08:37:27;17.20;92.40
60727;DHT22;46577;49.004;12.120;2023-04-16T08:39:53;17.20;92.60
60727;DHT22;46577;49.004;12.120;2023-04-16T08:42:33;16.70;91.90
60727;DHT22;46577;49.004;12.120;2023-04-16T08:45:07;16.80;91.30
60727;DHT22;46577;49.004;12.120;2023-04-16T08:47:36;16.60;92.40
60727;DHT22;46577;49.004;12.120;2023-04-16T08:50:03;16.40;91.90
60727;DHT22;46577;49.004;12.120;2023-04-16T08:52:30;16.30;92.40
60727;DHT22;46577;49.004;12.120;2023-04-16T08:57:38;16.40;93.00
60727;DHT22;46577;49.004;12.120;2023-04-16T09:00:06;16.40;93.00
60727;DHT22;46577;49.004;12.120;2023-04-16T09:02:33;16.00;93.60
60727;DHT22;46577;49.004;12.120;2023-04-16T09:04:59;15.80;94.20
60727;DHT22;46577;49.004;12.120;2023-04-16T09:07:27;15.60;95.20
60727;DHT22;46577;49.004;12.120;2023-04-16T09:09:53;15.40;95.50
60727;DHT22;46577;49.004;12.120;2023-04-16T09:12:22;15.30;95.80
60727;DHT22;46577;49.004;12.120;2023-04-16T09:14:51;14.80;96.50
60727;DHT22;46577;49.004;12.120;2023-04-16T09:17:17;14.70;97.40
60727;DHT22;46577;49.004;12.120;2023-04-16T09:19:44;14.40;98.40
60727;DHT22;46577;49.004;12.120;2023-04-16T09:22:10;14.10;99.20
60727;DHT22;46577;49.004;12.120;2023-04-16T09:24:36;13.70;99.90
60727;DHT22;46577;49.004;12.120;2023-04-16T09:27:03;13.40;99.90
60727;DHT22;46577;49.004;12.120;2023-04-16T09:29:36;13.30;99.90
60727;DHT22;46577;49.004;12.120;2023-04-16T09:32:03;12.90;99.90
60727;DHT22;46577;49.004;12.120;2023-04-16T09:34:31;12.40;99.90
60727;DHT22;46577;49.004;12.120;2023-04-16T09:37:13;12.10;99.90
60727;DHT22;46577;49.004;12.120;2023-04-16T09:39:44;11.70;99.90
60727;DHT22;46577;49.004;12.120;2023-04-16T09:42:10;11.70;99.90
60727;DHT22;46577;49.004;12.120;2023-04-16T09:44:37;11.80;99.90
60727;DHT22;46577;49.004;12.120;2023-04-16T09:47:07;11.90;99.90
60727;DHT22;46577;49.004;12.120;2023-04-16T09:49:34;12.00;99.90
60727;DHT22;46577;49.004;12.120;2023-04-16T09:52:00;12.20;99.90
60727;DHT22;46577;49.004;12.120;2023-04-16T09:54:27;12.30;99.90
60727;DHT22;46577;49.004;12.120;2023-04-16T09:56:55;12.40;99.90
60727;DHT22;46577;49.004;12.120;2023-04-16T09:59:22;12.40;99.90
60727;DHT22;46577;49.004;12.120;2023-04-16T10:01:48;12.30;99.90
60727;DHT22;46577;49.004;12.120;2023-04-16T10:04:14;12.30;99.90
60727;DHT22;46577;49.004;12.120;2023-04-16T10:06:40;12.40;99.90
60727;DHT22;46577;49.004;12.120;2023-04-16T10:09:07;12.50;99.90
60727;DHT22;46577;49.004;12.120;2023-04-16T10:11:33;12.70;99.90
60727;DHT22;46577;49.004;12.120;2023-04-16T10:13:59;12.80;99.90
60727;DHT22;46577;49.004;12.120;2023-04-16T10:16:25;12.90;99.90
60727;DHT22;46577;49.004;12.120;2023-04-16T10:18:52;13.10;99.90
60727;DHT22;46577;49.004;12.120;2023-04-16T10:21:18;13.20;99.90
60727;DHT22;46577;49.004;12.120;2023-04-16T10:23:45;13.40;99.90
60727;DHT22;46577;49.004;12.120;2023-04-16T10:26:11;13.30;99.90
60727;DHT22;46577;49.004;12.120;2023-04-16T10:28:38;13.60;99.90
60727;DHT22;46577;49.004;12.120;2023-04-16T10:31:07;13.80;99.90
60727;DHT22;46577;49.004;12.120;2023-04-16T10:33:34;14.00;99.90
60727;DHT22;46577;49.004;12.120;2023-04-16T10:36:13;14.10;99.90
60727;DHT22;46577;49.004;12.120;2023-04-16T10:38:44;14.30;99.90
60727;DHT22;46577;49.004;12.120;2023-04-16T10:41:10;14.30;99.90
60727;DHT22;46577;49.004;12.120;2023-04-16T10:43:44;14.30;99.90
60727;DHT22;46577;49.004;12.120;2023-04-16T10:46:17;14.50;99.60
60727;DHT22;46577;49.004;12.120;2023-04-16T10:48:43;14.50;99.50
60727;DHT22;46577;49.004;12.120;2023-04-16T10:51:34;14.60;99.00
60727;DHT22;46577;49.004;12.120;2023-04-16T10:56:39;15.00;97.40
60727;DHT22;46577;49.004;12.120;2023-04-16T10:59:05;15.30;97.20
60727;DHT22;46577;49.004;12.120;2023-04-16T11:01:44;15.60;96.40
60727;DHT22;46577;49.004;12.120;2023-04-16T11:12:41;17.20;92.30
60727;DHT22;46577;49.004;12.120;2023-04-16T11:15:13;17.10;91.60
60727;DHT22;46577;49.004;12.120;2023-04-16T11:17:49;17.40;90.90
60727;DHT22;46577;49.004;12.120;2023-04-16T11:20:23;17.50;90.60
60727;DHT22;46577;49.004;12.120;2023-04-16T11:22:50;17.60;87.70
60727;DHT22;46577;49.004;12.120;2023-04-16T11:25:20;17.50;88.70
60727;DHT22;46577;49.004;12.120;2023-04-16T11:27:47;17.50;87.70
60727;DHT22;46577;49.004;12.120;2023-04-16T11:30:12;17.70;86.80
60727;DHT22;46577;49.004;12.120;2023-04-16T11:32:38;17.80;86.70
60727;DHT22;46577;49.004;12.120;2023-04-16T11:35:15;17.90;83.80
60727;DHT22;46577;49.004;12.120;2023-04-16T11:37:41;18.10;84.90
60727;DHT22;46577;49.004;12.120;2023-04-16T11:40:08;18.50;82.50
60727;DHT22;46577;49.004;12.120;2023-04-16T11:42:34;18.80;80.40
60727;DHT22;46577;49.004;12.120;2023-04-16T11:45:08;18.80;78.50
60727;DHT22;46577;49.004;12.120;2023-04-16T11:47:48;19.40;79.00
60727;DHT22;46577;49.004;12.120;2023-04-16T11:50:18;21.10;76.00
60727;DHT22;46577;49.004;12.120;2023-04-16T11:52:44;22.20;68.00
60727;DHT22;46577;49.004;12.120;2023-04-16T11:55:10;22.40;63.50
60727;DHT22;46577;49.004;12.120;2023-04-16T11:57:36;22.50;61.80
60727;DHT22;46577;49.004;12.120;2023-04-16T12:00:02;22.00;58.80
60727;DHT22;46577;49.004;12.120;2023-04-16T12:02:39;21.60;60.00
60727;DHT22;46577;49.004;12.120;2023-04-16T12:05:13;21.00;60.30
60727;DHT22;46577;49.004;12.120;2023-04-16T12:07:50;20.70;62.00
60727;DHT22;46577;49.004;12.120;2023-04-16T12:10:16;20.50;61.00
60727;DHT22;46577;49.004;12.120;2023-04-16T12:12:42;20.30;61.60
60727;DHT22;46577;49.004;12.120;2023-04-16T12:15:07;20.00;60.80
60727;DHT22;46577;49.004;12.120;2023-04-16T12:17:34;19.60;61.60
60727;DHT22;46577;49.004;12.120;2023-04-16T12:20:02;19.50;62.50
60727;DHT22;46577;49.004;12.120;2023-04-16T12:22:32;19.60;61.80
60727;DHT22;46577;49.004;12.120;2023-04-16T12:25:02;19.90;62.40
60727;DHT22;46577;49.004;12.120;2023-04-16T12:28:00;20.20;60.10
60727;DHT22;46577;49.004;12.120;2023-04-16T12:30:26;20.50;58.60
60727;DHT22;46577;49.004;12.120;2023-04-16T12:33:12;20.80;58.20
60727;DHT22;46577;49.004;12.120;2023-04-16T12:35:38;20.70;58.00
60727;DHT22;46577;49.004;12.120;2023-04-16T12:38:06;20.60;57.60
60727;DHT22;46577;49.004;12.120;2023-04-16T12:40:32;20.60;58.60
60727;DHT22;46577;49.004;12.120;2023-04-16T12:42:58;20.90;59.00
60727;DHT22;46577;49.004;12.120;2023-04-16T12:45:24;21.10;60.30
60727;DHT22;46577;49.004;12.120;2023-04-16T12:47:50;20.80;57.50
60727;DHT22;46577;49.004;12.120;2023-04-16T12:50:16;20.40;57.20
60727;DHT22;46577;49.004;12.120;2023-04-16T12:52:41;20.20;61.30
60727;DHT22;46577;49.004;12.120;2023-04-16T12:55:08;20.50;63.10
60727;DHT22;46577;49.004;12.120;2023-04-16T12:57:33;20.70;60.40
60727;DHT22;46577;49.004;12.120;2023-04-16T12:59:59;21.00;58.90
60727;DHT22;46577;49.004;12.120;2023-04-16T13:02:25;21.00;59.90
60727;DHT22;46577;49.004;12.120;2023-04-16T13:04:52;20.70;61.20
60727;DHT22;46577;49.004;12.120;2023-04-16T13:07:18;20.30;63.00
60727;DHT22;46577;49.004;12.120;2023-04-16T13:09:44;19.70;63.00
60727;DHT22;46577;49.004;12.120;2023-04-16T13:12:11;19.10;64.80
60727;DHT22;46577;49.004;12.120;2023-04-16T13:14:37;19.00;65.70
60727;DHT22;46577;49.004;12.120;2023-04-16T13:17:02;18.50;68.10
60727;DHT22;46577;49.004;12.120;2023-04-16T13:19:29;18.20;69.80
60727;DHT22;46577;49.004;12.120;2023-04-16T13:21:54;17.90;70.40
60727;DHT22;46577;49.004;12.120;2023-04-16T13:24:20;17.60;72.20
60727;DHT22;46577;49.004;12.120;2023-04-16T13:26:47;17.20;74.10
60727;DHT22;46577;49.004;12.120;2023-04-16T13:29:13;17.30;74.50
60727;DHT22;46577;49.004;12.120;2023-04-16T13:31:38;17.20;75.00
60727;DHT22;46577;49.004;12.120;2023-04-16T13:34:04;17.10;75.20
60727;DHT22;46577;49.004;12.120;2023-04-16T13:36:30;17.00;75.60
60727;DHT22;46577;49.004;12.120;2023-04-16T13:38:57;16.90;75.10
60727;DHT22;46577;49.004;12.120;2023-04-16T13:41:23;16.70;76.50
60727;DHT22;46577;49.004;12.120;2023-04-16T13:43:49;16.60;77.50
60727;DHT22;46577;49.004;12.120;2023-04-16T13:46:15;16.60;77.80
60727;DHT22;46577;49.004;12.120;2023-04-16T13:48:41;16.60;79.20
60727;DHT22;46577;49.004;12.120;2023-04-16T13:51:06;16.90;79.10
60727;DHT22;46577;49.004;12.120;2023-04-16T13:53:32;17.10;79.10
60727;DHT22;46577;49.004;12.120;2023-04-16T13:55:58;17.00;79.00
60727;DHT22;46577;49.004;12.120;2023-04-16T13:58:24;17.10;76.50
60727;DHT22;46577;49.004;12.120;2023-04-16T14:00:50;17.00;78.60
60727;DHT22;46577;49.004;12.120;2023-04-16T14:03:15;16.90;79.90
60727;DHT22;46577;49.004;12.120;2023-04-16T14:05:41;16.90;78.70
60727;DHT22;46577;49.004;12.120;2023-04-16T14:08:07;16.80;81.30
60727;DHT22;46577;49.004;12.120;2023-04-16T14:10:33;16.80;81.80
60727;DHT22;46577;49.004;12.120;2023-04-16T14:12:59;16.80;83.50
60727;DHT22;46577;49.004;12.120;2023-04-16T14:15:24;16.50;85.80
60727;DHT22;46577;49.004;12.120;2023-04-16T14:17:51;16.40;85.30
60727;DHT22;46577;49.004;12.120;2023-04-16T14:20:18;16.10;83.30
60727;DHT22;46577;49.004;12.120;2023-04-16T14:22:43;15.80;85.20
60727;DHT22;46577;49.004;12.120;2023-04-16T14:25:11;15.80;83.30
60727;DHT22;46577;49.004;12.120;2023-04-16T14:27:36;15.50;79.80
60727;DHT22;46577;49.004;12.120;2023-04-16T14:30:03;15.40;80.70
60727;DHT22;46577;49.004;12.120;2023-04-16T14:32:29;15.50;81.00
60727;DHT22;46577;49.004;12.120;2023-04-16T14:34:55;15.50;80.40
60727;DHT22;46577;49.004;12.120;2023-04-16T14:37:21;15.70;80.30
60727;DHT22;46577;49.004;12.120;2023-04-16T14:39:46;15.80;81.00
60727;DHT22;46577;49.004;12.120;2023-04-16T14:42:12;15.20;80.20
60727;DHT22;46577;49.004;12.120;2023-04-16T14:44:37;15.70;81.10
60727;DHT22;46577;49.004;12.120;2023-04-16T14:47:03;15.70;82.10
60727;DHT22;46577;49.004;12.120;2023-04-16T14:49:29;15.60;80.40
60727;DHT22;46577;49.004;12.120;2023-04-16T14:51:54;15.60;82.40
60727;DHT22;46577;49.004;12.120;2023-04-16T14:54:21;15.80;79.20
60727;DHT22;46577;49.004;12.120;2023-04-16T14:56:46;16.00;78.30
60727;DHT22;46577;49.004;12.120;2023-04-16T14:59:12;16.10;77.60
60727;DHT22;46577;49.004;12.120;2023-04-16T15:01:38;16.40;77.70
60727;DHT22;46577;49.004;12.120;2023-04-16T15:04:06;16.40;78.50
60727;DHT22;46577;49.004;12.120;2023-04-16T15:06:33;16.60;79.40
60727;DHT22;46577;49.004;12.120;2023-04-16T15:08:59;16.70;79.70
60727;DHT22;46577;49.004;12.120;2023-04-16T15:11:25;16.60;80.00
60727;DHT22;46577;49.004;12.120;2023-04-16T15:13:51;16.40;82.80
60727;DHT22;46577;49.004;12.120;2023-04-16T15:16:16;15.90;83.20
60727;DHT22;46577;49.004;12.120;2023-04-16T15:18:42;15.90;83.90
60727;DHT22;46577;49.004;12.120;2023-04-16T15:21:08;15.90;84.30
60727;DHT22;46577;49.004;12.120;2023-04-16T15:23:33;15.80;83.90
60727;DHT22;46577;49.004;12.120;2023-04-16T15:25:59;15.60;84.90
60727;DHT22;46577;49.004;12.120;2023-04-16T15:28:25;15.50;86.50
60727;DHT22;46577;49.004;12.120;2023-04-16T15:30:51;14.90;89.00
60727;DHT22;46577;49.004;12.120;2023-04-16T15:33:19;14.90;90.00